sensor_id;sensor_type;location;lat;lon;timestamp;pressure;altitude;pressure_sealevel;temperature;humidity
70968;BME280;58629;48.808;8.820;2023-05-08T00:00:15;97385.25;;;13.63;100.00
70968;BME280;58629;48.808;8.820;2023-05-08T00:02:41;97388.13;;;13.56;100.00
70968;BME280;58629;48.808;8.820;2023-05-08T00:05:06;97383.56;;;13.41;100.00
70968;BME280;58629;48.808;8.820;2023-05-08T00:07:32;97380.59;;;13.39;100.00
70968;BME280;58629;48.808;8.820;2023-05-08T00:09:57;97386.22;;;13.41;100.00
70968;BME280;58629;48.808;8.820;2023-05-08T00:12:22;97386.56;;;13.43;100.00
70968;BME280;58629;48.808;8.820;2023-05-08T00:14:48;97383.47;;;13.44;100.00
70968;BME280;58629;48.808;8.820;2023-05-08T00:17:13;97389.88;;;13.47;100.00
70968;BME280;58629;48.808;8.820;2023-05-08T00:19:38;97385.63;;;13.49;100.00
70968;BME280;58629;48.808;8.820;2023-05-08T00:22:03;97390.94;;;13.49;100.00
70968;BME280;58629;48.808;8.820;2023-05-08T00:24:29;97396.16;;;13.53;100.00
70968;BME280;58629;48.808;8.820;2023-05-08T00:26:54;97395.78;;;13.54;100.00
70968;BME280;58629;48.808;8.820;2023-05-08T00:29:19;97384.69;;;13.56;100.00
70968;BME280;58629;48.808;8.820;2023-05-08T00:31:44;97392.69;;;13.56;100.00
70968;BME280;58629;48.808;8.820;2023-05-08T00:34:10;97399.59;;;13.53;100.00
70968;BME280;58629;48.808;8.820;2023-05-08T00:36:35;97388.59;;;13.51;100.00
70968;BME280;58629;48.808;8.820;2023-05-08T00:39:00;97394.69;;;13.52;100.00
70968;BME280;58629;48.808;8.820;2023-05-08T00:41:25;97393.50;;;13.53;100.00
70968;BME280;58629;48.808;8.820;2023-05-08T00:43:51;97393.50;;;13.53;100.00
70968;BME280;58629;48.808;8.820;2023-05-08T00:46:16;97394.34;;;13.50;100.00
70968;BME280;58629;48.808;8.820;2023-05-08T00:48:42;97397.34;;;13.52;100.00
70968;BME280;58629;48.808;8.820;2023-05-08T00:51:08;97395.09;;;13.50;100.00
70968;BME280;58629;48.808;8.820;2023-05-08T00:53:38;97394.44;;;13.46;100.00
70968;BME280;58629;48.808;8.820;2023-05-08T00:56:04;97401.09;;;13.38;100.00
70968;BME280;58629;48.808;8.820;2023-05-08T00:58:31;97400.78;;;13.36;100.00
70968;BME280;58629;48.808;8.820;2023-05-08T01:00:56;97395.03;;;13.38;100.00
70968;BME280;58629;48.808;8.820;2023-05-08T01:03:24;97401.00;;;13.42;100.00
70968;BME280;58629;48.808;8.820;2023-05-08T01:05:50;97396.88;;;13.41;100.00
70968;BME280;58629;48.808;8.820;2023-05-08T01:08:15;97401.78;;;13.42;100.00
70968;BME280;58629;48.808;8.820;2023-05-08T01:11:49;97402.09;;;13.44;100.00
70968;BME280;58629;48.808;8.820;2023-05-08T01:30:36;97396.44;;;13.42;100.00
70968;BME280;58629;48.808;8.820;2023-05-08T01:33:32;97401.19;;;13.35;100.00
70968;BME280;58629;48.808;8.820;2023-05-08T01:36:05;97401.44;;;13.24;100.00
70968;BME280;58629;48.808;8.820;2023-05-08T01:38:54;97399.31;;;13.19;100.00
70968;BME280;58629;48.808;8.820;2023-05-08T01:41:26;97403.53;;;13.17;100.00
70968;BME280;58629;48.808;8.820;2023-05-08T01:44:12;97401.53;;;13.21;100.00
70968;BME280;58629;48.808;8.820;2023-05-08T01:46:41;97404.91;;;13.21;100.00
70968;BME280;58629;48.808;8.820;2023-05-08T01:49:11;97404.09;;;13.24;100.00
70968;BME280;58629;48.808;8.820;2023-05-08T01:51:46;97400.69;;;13.24;100.00
70968;BME280;58629;48.808;8.820;2023-05-08T01:54:19;97397.22;;;13.27;100.00
70968;BME280;58629;48.808;8.820;2023-05-08T01:56:46;97408.91;;;13.29;100.00
70968;BME280;58629;48.808;8.820;2023-05-08T01:59:16;97408.19;;;13.29;100.00
70968;BME280;58629;48.808;8.820;2023-05-08T02:01:45;97416.56;;;13.27;100.00
70968;BME280;58629;48.808;8.820;2023-05-08T02:04:13;97405.19;;;13.27;100.00
70968;BME280;58629;48.808;8.820;2023-05-08T02:06:39;97406.44;;;13.22;100.00
70968;BME280;58629;48.808;8.820;2023-05-08T02:09:07;97413.75;;;13.18;100.00
70968;BME280;58629;48.808;8.820;2023-05-08T02:11:35;97412.25;;;13.17;100.00
70968;BME280;58629;48.808;8.820;2023-05-08T02:14:02;97415.06;;;13.10;100.00
70968;BME280;58629;48.808;8.820;2023-05-08T02:16:29;97414.75;;;13.08;100.00
70968;BME280;58629;48.808;8.820;2023-05-08T02:18:57;97418.56;;;13.07;100.00
70968;BME280;58629;48.808;8.820;2023-05-08T02:21:25;97415.59;;;13.05;100.00
70968;BME280;58629;48.808;8.820;2023-05-08T02:23:51;97414.88;;;13.01;100.00
70968;BME280;58629;48.808;8.820;2023-05-08T02:26:17;97419.88;;;12.99;100.00
70968;BME280;58629;48.808;8.820;2023-05-08T02:28:44;97421.28;;;13.03;100.00
70968;BME280;58629;48.808;8.820;2023-05-08T02:31:11;97423.88;;;13.07;100.00
70968;BME280;58629;48.808;8.820;2023-05-08T02:33:38;97422.28;;;13.10;100.00
70968;BME280;58629;48.808;8.820;2023-05-08T02:36:06;97423.81;;;13.11;100.00
70968;BME280;58629;48.808;8.820;2023-05-08T02:38:32;97416.91;;;13.13;100.00
70968;BME280;58629;48.808;8.820;2023-05-08T02:41:00;97421.16;;;13.11;100.00
70968;BME280;58629;48.808;8.820;2023-05-08T02:43:27;97421.22;;;13.07;100.00
70968;BME280;58629;48.808;8.820;2023-05-08T02:48:55;97411.75;;;13.06;100.00
70968;BME280;58629;48.808;8.820;2023-05-08T02:51:25;97413.25;;;13.07;100.00
70968;BME280;58629;48.808;8.820;2023-05-08T02:54:14;97416.97;;;13.10;100.00
70968;BME280;58629;48.808;8.820;2023-05-08T03:00:22;97420.63;;;13.16;100.00
70968;BME280;58629;48.808;8.820;2023-05-08T03:02:58;97419.50;;;13.17;100.00
70968;BME280;58629;48.808;8.820;2023-05-08T03:05:29;97427.03;;;13.18;100.00
70968;BME280;58629;48.808;8.820;2023-05-08T03:07:59;97417.91;;;13.19;100.00
70968;BME280;58629;48.808;8.820;2023-05-08T03:10:28;97416.75;;;13.20;100.00
70968;BME280;58629;48.808;8.820;2023-05-08T03:12:57;97420.56;;;13.19;100.00
70968;BME280;58629;48.808;8.820;2023-05-08T03:15:32;97412.59;;;13.19;100.00
70968;BME280;58629;48.808;8.820;2023-05-08T03:18:02;97417.50;;;13.21;100.00
70968;BME280;58629;48.808;8.820;2023-05-08T03:20:35;97414.41;;;13.22;100.00
70968;BME280;58629;48.808;8.820;2023-05-08T03:23:02;97406.44;;;13.22;100.00
70968;BME280;58629;48.808;8.820;2023-05-08T03:25:29;97413.31;;;13.20;100.00
70968;BME280;58629;48.808;8.820;2023-05-08T03:27:56;97410.75;;;13.16;100.00
70968;BME280;58629;48.808;8.820;2023-05-08T03:30:22;97416.06;;;13.16;100.00
70968;BME280;58629;48.808;8.820;2023-05-08T03:32:49;97419.56;;;13.13;100.00
70968;BME280;58629;48.808;8.820;2023-05-08T03:35:16;97418.81;;;13.13;100.00
70968;BME280;58629;48.808;8.820;2023-05-08T03:37:42;97416.97;;;13.10;100.00
70968;BME280;58629;48.808;8.820;2023-05-08T03:40:08;97416.78;;;13.00;100.00
70968;BME280;58629;48.808;8.820;2023-05-08T03:42:34;97410.13;;;12.92;100.00
70968;BME280;58629;48.808;8.820;2023-05-08T03:45:02;97416.88;;;12.97;100.00
70968;BME280;58629;48.808;8.820;2023-05-08T03:47:28;97412.38;;;12.94;100.00
70968;BME280;58629;48.808;8.820;2023-05-08T03:49:54;97409.38;;;12.92;100.00
70968;BME280;58629;48.808;8.820;2023-05-08T03:52:19;97414.34;;;12.90;100.00
70968;BME280;58629;48.808;8.820;2023-05-08T03:54:45;97420.44;;;12.90;100.00
70968;BME280;58629;48.808;8.820;2023-05-08T03:57:11;97424.91;;;12.93;100.00
70968;BME280;58629;48.808;8.820;2023-05-08T04:00:18;97425.31;;;12.92;100.00
70968;BME280;58629;48.808;8.820;2023-05-08T04:02:51;97424.31;;;12.86;100.00
70968;BME280;58629;48.808;8.820;2023-05-08T04:05:33;97427.41;;;12.84;100.00
70968;BME280;58629;48.808;8.820;2023-05-08T04:10:43;97429.72;;;12.82;100.00
70968;BME280;58629;48.808;8.820;2023-05-08T04:13:17;97428.56;;;12.83;100.00
70968;BME280;58629;48.808;8.820;2023-05-08T04:15:48;97435.44;;;12.81;100.00
70968;BME280;58629;48.808;8.820;2023-05-08T04:18:16;97432.78;;;12.81;100.00
70968;BME280;58629;48.808;8.820;2023-05-08T04:20:46;97433.94;;;12.80;100.00
70968;BME280;58629;48.808;8.820;2023-05-08T04:23:14;97432.78;;;12.81;100.00
70968;BME280;58629;48.808;8.820;2023-05-08T04:25:41;97441.09;;;12.83;100.00
70968;BME280;58629;48.808;8.820;2023-05-08T04:28:07;97443.00;;;12.82;100.00
70968;BME280;58629;48.808;8.820;2023-05-08T04:30:33;97443.34;;;12.84;100.00
70968;BME280;58629;48.808;8.820;2023-05-08T04:33:01;97443.69;;;12.86;100.00
70968;BME280;58629;48.808;8.820;2023-05-08T04:35:28;97447.00;;;12.90;100.00
70968;BME280;58629;48.808;8.820;2023-05-08T04:37:54;97442.03;;;12.92;100.00
70968;BME280;58629;48.808;8.820;2023-05-08T04:40:19;97443.13;;;12.95;100.00
70968;BME280;58629;48.808;8.820;2023-05-08T04:42:44;97442.19;;;13.01;100.00
70968;BME280;58629;48.808;8.820;2023-05-08T04:45:11;97447.41;;;13.09;100.00
70968;BME280;58629;48.808;8.820;2023-05-08T04:47:37;97452.97;;;13.14;100.00
70968;BME280;58629;48.808;8.820;2023-05-08T04:50:02;97451.31;;;13.20;100.00
70968;BME280;58629;48.808;8.820;2023-05-08T04:52:27;97454.22;;;13.26;100.00
70968;BME280;58629;48.808;8.820;2023-05-08T04:54:53;97456.78;;;13.29;100.00
70968;BME280;58629;48.808;8.820;2023-05-08T04:57:18;97452.88;;;13.34;100.00
70968;BME280;58629;48.808;8.820;2023-05-08T04:59:43;97457.78;;;13.35;100.00
70968;BME280;58629;48.808;8.820;2023-05-08T05:02:08;97453.88;;;13.40;100.00
70968;BME280;58629;48.808;8.820;2023-05-08T05:04:34;97454.22;;;13.42;100.00
70968;BME280;58629;48.808;8.820;2023-05-08T05:07:01;97462.53;;;13.44;100.00
70968;BME280;58629;48.808;8.820;2023-05-08T05:09:27;97459.44;;;13.45;100.00
70968;BME280;58629;48.808;8.820;2023-05-08T05:11:52;97459.38;;;13.49;100.00
70968;BME280;58629;48.808;8.820;2023-05-08T05:14:17;97470.34;;;13.51;100.00
70968;BME280;58629;48.808;8.820;2023-05-08T05:16:43;97469.94;;;13.52;100.00
70968;BME280;58629;48.808;8.820;2023-05-08T05:19:08;97466.44;;;13.55;100.00
70968;BME280;58629;48.808;8.820;2023-05-08T05:21:33;97471.75;;;13.55;100.00
70968;BME280;58629;48.808;8.820;2023-05-08T05:23:59;97467.19;;;13.56;100.00
70968;BME280;58629;48.808;8.820;2023-05-08T05:26:24;97473.16;;;13.60;100.00
70968;BME280;58629;48.808;8.820;2023-05-08T05:28:49;97466.34;;;13.59;100.00
70968;BME280;58629;48.808;8.820;2023-05-08T05:31:15;97474.31;;;13.59;100.00
70968;BME280;58629;48.808;8.820;2023-05-08T05:33:41;97470.94;;;13.58;100.00
70968;BME280;58629;48.808;8.820;2023-05-08T05:36:06;97481.56;;;13.58;100.00
70968;BME280;58629;48.808;8.820;2023-05-08T05:38:32;97482.31;;;13.59;100.00
70968;BME280;58629;48.808;8.820;2023-05-08T05:40:57;97479.31;;;13.57;100.00
70968;BME280;58629;48.808;8.820;2023-05-08T05:43:22;97485.28;;;13.61;100.00
70968;BME280;58629;48.808;8.820;2023-05-08T05:45:47;97479.16;;;13.64;100.00
70968;BME280;58629;48.808;8.820;2023-05-08T05:48:13;97484.38;;;13.67;100.00
70968;BME280;58629;48.808;8.820;2023-05-08T05:50:38;97490.69;;;13.73;100.00
70968;BME280;58629;48.808;8.820;2023-05-08T05:53:03;97495.28;;;13.73;100.00
70968;BME280;58629;48.808;8.820;2023-05-08T05:55:29;97489.88;;;13.76;100.00
70968;BME280;58629;48.808;8.820;2023-05-08T05:57:54;97492.44;;;13.80;100.00
70968;BME280;58629;48.808;8.820;2023-05-08T06:00:20;97488.22;;;13.82;100.00
70968;BME280;58629;48.808;8.820;2023-05-08T06:02:46;97489.69;;;13.83;100.00
70968;BME280;58629;48.808;8.820;2023-05-08T06:05:11;97492.25;;;13.87;100.00
70968;BME280;58629;48.808;8.820;2023-05-08T06:07:37;97488.44;;;13.88;100.00
70968;BME280;58629;48.808;8.820;2023-05-08T06:10:03;97488.78;;;13.90;100.00
70968;BME280;58629;48.808;8.820;2023-05-08T06:12:29;97490.69;;;13.89;100.00
70968;BME280;58629;48.808;8.820;2023-05-08T06:14:54;97497.81;;;13.92;100.00
70968;BME280;58629;48.808;8.820;2023-05-08T06:17:20;97491.78;;;13.92;100.00
70968;BME280;58629;48.808;8.820;2023-05-08T06:19:46;97497.50;;;13.90;100.00
70968;BME280;58629;48.808;8.820;2023-05-08T06:22:15;97498.56;;;13.93;100.00
70968;BME280;58629;48.808;8.820;2023-05-08T06:24:41;97498.69;;;13.89;100.00
70968;BME280;58629;48.808;8.820;2023-05-08T06:27:07;97498.69;;;13.89;100.00
70968;BME280;58629;48.808;8.820;2023-05-08T06:29:32;97503.91;;;13.93;100.00
70968;BME280;58629;48.808;8.820;2023-05-08T06:31:58;97500.09;;;13.94;100.00
70968;BME280;58629;48.808;8.820;2023-05-08T06:34:23;97507.56;;;13.99;100.00
70968;BME280;58629;48.808;8.820;2023-05-08T06:36:48;97505.22;;;14.01;100.00
70968;BME280;58629;48.808;8.820;2023-05-08T06:39:14;97496.75;;;14.06;100.00
70968;BME280;58629;48.808;8.820;2023-05-08T06:41:39;97503.78;;;14.13;100.00
70968;BME280;58629;48.808;8.820;2023-05-08T06:44:05;97504.00;;;14.18;100.00
70968;BME280;58629;48.808;8.820;2023-05-08T06:46:30;97498.19;;;14.23;100.00
70968;BME280;58629;48.808;8.820;2023-05-08T06:48:55;97500.41;;;14.25;100.00
70968;BME280;58629;48.808;8.820;2023-05-08T06:51:21;97500.69;;;14.30;100.00
70968;BME280;58629;48.808;8.820;2023-05-08T06:53:47;97496.97;;;14.28;100.00
70968;BME280;58629;48.808;8.820;2023-05-08T06:56:12;97502.34;;;14.24;100.00
70968;BME280;58629;48.808;8.820;2023-05-08T06:58:37;97500.41;;;14.25;100.00
70968;BME280;58629;48.808;8.820;2023-05-08T07:01:03;97509.00;;;14.32;100.00
70968;BME280;58629;48.808;8.820;2023-05-08T07:03:28;97504.66;;;14.38;100.00
70968;BME280;58629;48.808;8.820;2023-05-08T07:05:53;97506.50;;;14.41;100.00
70968;BME280;58629;48.808;8.820;2023-05-08T07:08:19;97500.63;;;14.46;100.00
70968;BME280;58629;48.808;8.820;2023-05-08T07:10:44;97507.78;;;14.49;100.00
70968;BME280;58629;48.808;8.820;2023-05-08T07:13:09;97497.34;;;14.55;100.00
70968;BME280;58629;48.808;8.820;2023-05-08T07:15:35;97496.41;;;14.61;100.00
70968;BME280;58629;48.808;8.820;2023-05-08T07:18:00;97506.97;;;14.65;100.00
70968;BME280;58629;48.808;8.820;2023-05-08T07:20:26;97511.44;;;14.68;100.00
70968;BME280;58629;48.808;8.820;2023-05-08T07:22:51;97511.78;;;14.70;100.00
70968;BME280;58629;48.808;8.820;2023-05-08T07:25:16;97504.31;;;14.65;100.00
70968;BME280;58629;48.808;8.820;2023-05-08T07:27:42;97510.19;;;14.72;100.00
70968;BME280;58629;48.808;8.820;2023-05-08T07:30:07;97515.94;;;14.84;100.00
70968;BME280;58629;48.808;8.820;2023-05-08T07:32:33;97518.31;;;14.94;100.00
70968;BME280;58629;48.808;8.820;2023-05-08T07:34:58;97511.94;;;15.04;100.00
70968;BME280;58629;48.808;8.820;2023-05-08T07:37:24;97508.84;;;15.18;100.00
70968;BME280;58629;48.808;8.820;2023-05-08T07:39:49;97515.34;;;15.30;100.00
70968;BME280;58629;48.808;8.820;2023-05-08T07:42:15;97512.94;;;15.48;100.00
70968;BME280;58629;48.808;8.820;2023-05-08T07:44:42;97518.03;;;15.68;100.00
70968;BME280;58629;48.808;8.820;2023-05-08T07:47:07;97516.31;;;15.74;100.00
70968;BME280;58629;48.808;8.820;2023-05-08T07:49:33;97520.38;;;15.78;98.96
70968;BME280;58629;48.808;8.820;2023-05-08T07:51:58;97512.88;;;15.86;99.32
70968;BME280;58629;48.808;8.820;2023-05-08T07:54:23;97522.78;;;15.98;100.00
70968;BME280;58629;48.808;8.820;2023-05-08T07:56:48;97512.84;;;15.98;100.00
70968;BME280;58629;48.808;8.820;2023-05-08T07:59:14;97520.94;;;15.95;99.75
70968;BME280;58629;48.808;8.820;2023-05-08T08:01:39;97521.72;;;15.95;100.00
70968;BME280;58629;48.808;8.820;2023-05-08T08:04:06;97523.22;;;15.96;100.00
70968;BME280;58629;48.808;8.820;2023-05-08T08:06:32;97523.22;;;15.96;100.00
70968;BME280;58629;48.808;8.820;2023-05-08T08:08:57;97521.59;;;15.99;100.00
70968;BME280;58629;48.808;8.820;2023-05-08T08:11:22;97519.59;;;15.90;100.00
70968;BME280;58629;48.808;8.820;2023-05-08T08:13:47;97523.56;;;15.86;99.47
70968;BME280;58629;48.808;8.820;2023-05-08T08:16:13;97526.53;;;15.88;100.00
70968;BME280;58629;48.808;8.820;2023-05-08T08:18:38;97530.06;;;15.85;99.07
70968;BME280;58629;48.808;8.820;2023-05-08T08:21:05;97524.50;;;15.92;97.43
70968;BME280;58629;48.808;8.820;2023-05-08T08:23:30;97520.28;;;16.16;98.17
70968;BME280;58629;48.808;8.820;2023-05-08T08:25:56;97528.00;;;16.35;95.69
70968;BME280;58629;48.808;8.820;2023-05-08T08:28:22;97526.03;;;16.48;95.35
70968;BME280;58629;48.808;8.820;2023-05-08T08:30:47;97522.72;;;16.66;92.93
70968;BME280;58629;48.808;8.820;2023-05-08T08:33:12;97536.97;;;16.63;92.60
70968;BME280;58629;48.808;8.820;2023-05-08T08:35:38;97532.94;;;16.59;93.23
70968;BME280;58629;48.808;8.820;2023-05-08T08:38:03;97530.56;;;16.61;92.93
70968;BME280;58629;48.808;8.820;2023-05-08T08:40:28;97533.25;;;16.61;92.37
70968;BME280;58629;48.808;8.820;2023-05-08T08:42:54;97530.09;;;16.53;92.24
70968;BME280;58629;48.808;8.820;2023-05-08T08:45:19;97532.44;;;16.51;91.82
70968;BME280;58629;48.808;8.820;2023-05-08T08:47:47;97539.00;;;16.37;92.76
70968;BME280;58629;48.808;8.820;2023-05-08T08:50:13;97539.31;;;16.39;93.43
70968;BME280;58629;48.808;8.820;2023-05-08T08:52:54;97544.03;;;16.35;92.94
70968;BME280;58629;48.808;8.820;2023-05-08T08:55:21;97542.59;;;16.43;92.37
70968;BME280;58629;48.808;8.820;2023-05-08T09:00:31;97538.78;;;16.66;91.92
70968;BME280;58629;48.808;8.820;2023-05-08T09:02:57;97543.75;;;16.77;90.93
70968;BME280;58629;48.808;8.820;2023-05-08T09:05:22;97542.06;;;16.70;88.12
70968;BME280;58629;48.808;8.820;2023-05-08T09:07:52;97538.41;;;16.77;87.42
70968;BME280;58629;48.808;8.820;2023-05-08T09:10:18;97544.81;;;16.79;88.94
70968;BME280;58629;48.808;8.820;2023-05-08T09:12:44;97546.22;;;16.93;89.32
70968;BME280;58629;48.808;8.820;2023-05-08T09:15:09;97542.69;;;16.74;89.41
70968;BME280;58629;48.808;8.820;2023-05-08T09:17:35;97541.03;;;16.89;88.05
70968;BME280;58629;48.808;8.820;2023-05-08T09:20:01;97537.09;;;16.81;87.90
70968;BME280;58629;48.808;8.820;2023-05-08T09:22:27;97547.16;;;16.99;87.62
70968;BME280;58629;48.808;8.820;2023-05-08T09:24:54;97537.38;;;17.05;87.96
70968;BME280;58629;48.808;8.820;2023-05-08T09:27:23;97541.28;;;17.13;88.71
70968;BME280;58629;48.808;8.820;2023-05-08T09:30:03;97542.53;;;17.30;87.79
70968;BME280;58629;48.808;8.820;2023-05-08T09:32:30;97538.03;;;17.49;87.03
70968;BME280;58629;48.808;8.820;2023-05-08T09:34:56;97536.69;;;17.53;84.99
70968;BME280;58629;48.808;8.820;2023-05-08T09:37:22;97550.16;;;17.71;85.02
70968;BME280;58629;48.808;8.820;2023-05-08T09:39:47;97545.28;;;17.88;83.44
70968;BME280;58629;48.808;8.820;2023-05-08T09:42:14;97541.28;;;17.92;82.29
70968;BME280;58629;48.808;8.820;2023-05-08T09:44:49;97538.41;;;17.87;83.35
70968;BME280;58629;48.808;8.820;2023-05-08T09:47:24;97543.66;;;17.99;82.64
70968;BME280;58629;48.808;8.820;2023-05-08T09:49:59;97549.72;;;17.82;82.30
70968;BME280;58629;48.808;8.820;2023-05-08T09:52:26;97545.13;;;17.82;83.05
70968;BME280;58629;48.808;8.820;2023-05-08T09:54:59;97539.19;;;17.96;82.04
70968;BME280;58629;48.808;8.820;2023-05-08T09:57:26;97543.53;;;18.12;83.71
70968;BME280;58629;48.808;8.820;2023-05-08T10:00:00;97543.09;;;18.32;83.31
70968;BME280;58629;48.808;8.820;2023-05-08T10:02:25;97545.81;;;18.50;82.30
70968;BME280;58629;48.808;8.820;2023-05-08T10:04:51;97538.91;;;18.76;81.88
70968;BME280;58629;48.808;8.820;2023-05-08T10:07:26;97542.03;;;18.83;80.74
70968;BME280;58629;48.808;8.820;2023-05-08T10:10:02;97547.22;;;18.96;80.85
70968;BME280;58629;48.808;8.820;2023-05-08T10:12:28;97542.09;;;19.16;78.64
70968;BME280;58629;48.808;8.820;2023-05-08T10:14:53;97542.94;;;19.31;77.86
70968;BME280;58629;48.808;8.820;2023-05-08T10:18:09;97551.28;;;19.42;76.60
70968;BME280;58629;48.808;8.820;2023-05-08T10:20:10;97546.22;;;19.35;76.85
70968;BME280;58629;48.808;8.820;2023-05-08T10:22:40;97546.56;;;19.19;75.60
70968;BME280;58629;48.808;8.820;2023-05-08T10:25:13;97554.88;;;18.79;75.12
70968;BME280;58629;48.808;8.820;2023-05-08T10:27:46;97550.41;;;18.67;77.25
70968;BME280;58629;48.808;8.820;2023-05-08T10:30:12;97553.97;;;18.82;78.21
70968;BME280;58629;48.808;8.820;2023-05-08T10:32:42;97549.03;;;18.81;78.18
70968;BME280;58629;48.808;8.820;2023-05-08T10:35:09;97549.78;;;18.81;78.24
70968;BME280;58629;48.808;8.820;2023-05-08T10:37:36;97550.41;;;18.58;77.98
70968;BME280;58629;48.808;8.820;2023-05-08T10:40:03;97550.41;;;18.49;76.80
70968;BME280;58629;48.808;8.820;2023-05-08T10:42:29;97552.94;;;18.53;78.44
70968;BME280;58629;48.808;8.820;2023-05-08T10:44:55;97546.81;;;18.52;79.40
70968;BME280;58629;48.808;8.820;2023-05-08T10:47:29;97543.09;;;18.41;78.91
70968;BME280;58629;48.808;8.820;2023-05-08T10:50:03;97549.94;;;18.42;77.66
70968;BME280;58629;48.808;8.820;2023-05-08T10:52:58;97545.78;;;18.41;78.48
70968;BME280;58629;48.808;8.820;2023-05-08T10:55:34;97544.13;;;18.16;78.88
70968;BME280;58629;48.808;8.820;2023-05-08T11:03:26;97540.19;;;17.81;80.64
70968;BME280;58629;48.808;8.820;2023-05-08T11:05:54;97547.63;;;17.68;81.51
70968;BME280;58629;48.808;8.820;2023-05-08T11:08:25;97537.97;;;17.70;81.51
70968;BME280;58629;48.808;8.820;2023-05-08T11:16:07;97548.22;;;17.63;82.91
70968;BME280;58629;48.808;8.820;2023-05-08T11:18:35;97545.94;;;17.61;84.03
70968;BME280;58629;48.808;8.820;2023-05-08T11:21:04;97544.19;;;17.67;nan
70968;BME280;58629;48.808;8.820;2023-05-08T11:23:38;97542.72;;;17.66;83.47
70968;BME280;58629;48.808;8.820;2023-05-08T11:28:36;97543.91;;;17.74;84.33
70968;BME280;58629;48.808;8.820;2023-05-08T11:31:03;97538.69;;;17.71;84.34
70968;BME280;58629;48.808;8.820;2023-05-08T11:33:33;97533.94;;;17.75;84.48
70968;BME280;58629;48.808;8.820;2023-05-08T11:36:17;97523.09;;;17.78;84.39
70968;BME280;58629;48.808;8.820;2023-05-08T11:39:09;97528.16;;;17.85;86.76
70968;BME280;58629;48.808;8.820;2023-05-08T11:41:39;97518.38;;;18.09;86.95
70968;BME280;58629;48.808;8.820;2023-05-08T11:44:16;97523.13;;;18.33;85.68
70968;BME280;58629;48.808;8.820;2023-05-08T11:46:54;97529.53;;;18.71;83.91
70968;BME280;58629;48.808;8.820;2023-05-08T11:49:24;97521.78;;;19.24;78.51
70968;BME280;58629;48.808;8.820;2023-05-08T11:51:51;97522.44;;;19.75;77.77
70968;BME280;58629;48.808;8.820;2023-05-08T11:54:20;97517.81;;;20.00;79.87
70968;BME280;58629;48.808;8.820;2023-05-08T11:56:47;97524.22;;;20.02;78.49
70968;BME280;58629;48.808;8.820;2023-05-08T11:59:12;97521.34;;;20.06;79.57
70968;BME280;58629;48.808;8.820;2023-05-08T12:01:38;97532.91;;;19.97;76.77
70968;BME280;58629;48.808;8.820;2023-05-08T12:04:08;97522.22;;;19.64;74.66
70968;BME280;58629;48.808;8.820;2023-05-08T12:06:34;97526.38;;;19.89;77.04
70968;BME280;58629;48.808;8.820;2023-05-08T12:09:02;97527.31;;;19.62;73.08
70968;BME280;58629;48.808;8.820;2023-05-08T12:11:29;97528.47;;;19.38;75.77
70968;BME280;58629;48.808;8.820;2023-05-08T12:13:55;97522.63;;;18.97;80.10
70968;BME280;58629;48.808;8.820;2023-05-08T12:16:21;97525.63;;;19.32;80.36
70968;BME280;58629;48.808;8.820;2023-05-08T12:18:51;97519.50;;;19.32;76.01
70968;BME280;58629;48.808;8.820;2023-05-08T12:21:16;97518.47;;;19.38;75.89
70968;BME280;58629;48.808;8.820;2023-05-08T12:23:42;97515.97;;;19.58;77.64
70968;BME280;58629;48.808;8.820;2023-05-08T12:26:08;97518.91;;;19.69;77.03
70968;BME280;58629;48.808;8.820;2023-05-08T12:28:33;97520.41;;;19.70;75.67
70968;BME280;58629;48.808;8.820;2023-05-08T12:31:01;97517.81;;;19.76;76.67
70968;BME280;58629;48.808;8.820;2023-05-08T12:33:27;97521.75;;;19.89;76.37
70968;BME280;58629;48.808;8.820;2023-05-08T12:35:54;97519.13;;;20.04;75.89
70968;BME280;58629;48.808;8.820;2023-05-08T12:38:24;97513.00;;;20.27;74.44
70968;BME280;58629;48.808;8.820;2023-05-08T12:40:50;97516.38;;;20.51;72.23
70968;BME280;58629;48.808;8.820;2023-05-08T12:43:17;97512.44;;;21.05;67.80
70968;BME280;58629;48.808;8.820;2023-05-08T12:45:42;97517.16;;;21.10;70.46
70968;BME280;58629;48.808;8.820;2023-05-08T12:48:10;97519.84;;;21.25;69.99
70968;BME280;58629;48.808;8.820;2023-05-08T12:50:37;97513.00;;;21.44;68.17
70968;BME280;58629;48.808;8.820;2023-05-08T12:53:03;97520.53;;;21.40;68.09
70968;BME280;58629;48.808;8.820;2023-05-08T12:55:31;97518.97;;;21.33;68.46
70968;BME280;58629;48.808;8.820;2023-05-08T12:58:04;97521.31;;;21.26;68.71
70968;BME280;58629;48.808;8.820;2023-05-08T13:03:00;97514.28;;;20.99;69.64
70968;BME280;58629;48.808;8.820;2023-05-08T13:05:25;97519.56;;;20.79;68.26
70968;BME280;58629;48.808;8.820;2023-05-08T13:07:50;97519.66;;;20.55;70.20
70968;BME280;58629;48.808;8.820;2023-05-08T13:10:16;97518.22;;;20.07;73.09
70968;BME280;58629;48.808;8.820;2023-05-08T13:12:44;97520.28;;;19.88;74.87
70968;BME280;58629;48.808;8.820;2023-05-08T13:15:09;97516.78;;;19.73;75.45
70968;BME280;58629;48.808;8.820;2023-05-08T13:17:35;97520.03;;;19.77;75.69
70968;BME280;58629;48.808;8.820;2023-05-08T13:20:00;97515.59;;;19.74;76.79
70968;BME280;58629;48.808;8.820;2023-05-08T13:22:27;97510.16;;;19.60;77.11
70968;BME280;58629;48.808;8.820;2023-05-08T13:24:53;97510.03;;;19.54;77.50
70968;BME280;58629;48.808;8.820;2023-05-08T13:27:18;97512.94;;;19.65;77.48
70968;BME280;58629;48.808;8.820;2023-05-08T13:29:43;97507.63;;;19.56;76.05
70968;BME280;58629;48.808;8.820;2023-05-08T13:32:08;97506.66;;;19.45;77.38
70968;BME280;58629;48.808;8.820;2023-05-08T13:34:34;97500.41;;;19.39;77.49
70968;BME280;58629;48.808;8.820;2023-05-08T13:36:59;97499.22;;;19.31;77.18
70968;BME280;58629;48.808;8.820;2023-05-08T13:39:24;97501.88;;;18.98;77.77
70968;BME280;58629;48.808;8.820;2023-05-08T13:41:50;97500.72;;;18.90;78.52